sensor_id;sensor_type;location;lat;lon;timestamp;pressure;altitude;pressure_sealevel;temperature;humidity
78667;BME280;67983;59.830;30.198;2023-04-15T00:00:11;102745.53;;;5.36;26.46
78667;BME280;67983;59.830;30.198;2023-04-15T00:02:39;102745.53;;;5.37;26.34
78667;BME280;67983;59.830;30.198;2023-04-15T00:05:06;102742.91;;;5.34;26.57
78667;BME280;67983;59.830;30.198;2023-04-15T00:07:34;102747.34;;;5.32;26.63
78667;BME280;67983;59.830;30.198;2023-04-15T00:10:01;102746.47;;;5.30;26.43
78667;BME280;67983;59.830;30.198;2023-04-15T00:12:28;102749.97;;;5.32;26.47
78667;BME280;67983;59.830;30.198;2023-04-15T00:14:58;102742.06;;;5.32;26.44
78667;BME280;67983;59.830;30.198;2023-04-15T00:17:25;102749.97;;;5.32;26.37
78667;BME280;67983;59.830;30.198;2023-04-15T00:20:17;102748.25;;;5.28;26.85
78667;BME280;67983;59.830;30.198;2023-04-15T00:22:45;102745.63;;;5.28;26.86
78667;BME280;67983;59.830;30.198;2023-04-15T00:25:13;102757.00;;;5.30;26.75
78667;BME280;67983;59.830;30.198;2023-04-15T00:27:41;102757.03;;;5.29;26.70
78667;BME280;67983;59.830;30.198;2023-04-15T00:30:08;102747.44;;;5.25;26.69
78667;BME280;67983;59.830;30.198;2023-04-15T00:32:37;102754.41;;;5.27;26.35
78667;BME280;67983;59.830;30.198;2023-04-15T00:35:05;102757.03;;;5.29;26.71
78667;BME280;67983;59.830;30.198;2023-04-15T00:37:33;102759.69;;;5.27;26.67
78667;BME280;67983;59.830;30.198;2023-04-15T00:40:03;102756.25;;;5.19;26.78
78667;BME280;67983;59.830;30.198;2023-04-15T00:42:33;102772.91;;;5.23;26.91
78667;BME280;67983;59.830;30.198;2023-04-15T00:45:00;102763.28;;;5.22;26.71
78667;BME280;67983;59.830;30.198;2023-04-15T00:47:28;102770.28;;;5.21;26.98
78667;BME280;67983;59.830;30.198;2023-04-15T00:49:55;102768.53;;;5.20;26.95
78667;BME280;67983;59.830;30.198;2023-04-15T00:52:23;102766.81;;;5.18;27.18
78667;BME280;67983;59.830;30.198;2023-04-15T00:54:51;102769.41;;;5.19;26.87
78667;BME280;67983;59.830;30.198;2023-04-15T00:57:21;102766.78;;;5.22;27.06
78667;BME280;67983;59.830;30.198;2023-04-15T00:59:49;102765.00;;;5.23;26.74
78667;BME280;67983;59.830;30.198;2023-04-15T01:02:17;102768.50;;;5.23;26.91
78667;BME280;67983;59.830;30.198;2023-04-15T01:04:45;102778.19;;;5.20;27.09
78667;BME280;67983;59.830;30.198;2023-04-15T01:07:12;102773.78;;;5.20;27.24
78667;BME280;67983;59.830;30.198;2023-04-15T01:09:41;102773.84;;;5.16;27.26
78667;BME280;67983;59.830;30.198;2023-04-15T01:12:09;102766.88;;;5.12;27.26
78667;BME280;67983;59.830;30.198;2023-04-15T01:14:40;102771.28;;;5.11;27.20
78667;BME280;67983;59.830;30.198;2023-04-15T01:17:07;102775.69;;;5.09;27.32
78667;BME280;67983;59.830;30.198;2023-04-15T01:19:38;102774.84;;;5.07;27.30
78667;BME280;67983;59.830;30.198;2023-04-15T01:22:05;102771.31;;;5.06;27.17
78667;BME280;67983;59.830;30.198;2023-04-15T01:24:59;102765.19;;;5.06;27.46
78667;BME280;67983;59.830;30.198;2023-04-15T01:27:31;102771.34;;;5.02;27.25
78667;BME280;67983;59.830;30.198;2023-04-15T01:29:58;102767.84;;;5.01;27.33
78667;BME280;67983;59.830;30.198;2023-04-15T01:32:37;102778.41;;;4.98;27.60
78667;BME280;67983;59.830;30.198;2023-04-15T01:35:53;102775.84;;;4.94;27.79
78667;BME280;67983;59.830;30.198;2023-04-15T01:39:17;102767.97;;;4.91;27.56
78667;BME280;67983;59.830;30.198;2023-04-15T01:45:37;102764.47;;;4.92;27.86
78667;BME280;67983;59.830;30.198;2023-04-15T01:48:45;102755.69;;;4.91;27.91
78667;BME280;67983;59.830;30.198;2023-04-15T01:51:15;102757.44;;;4.89;27.75
78667;BME280;67983;59.830;30.198;2023-04-15T01:53:43;102766.16;;;4.96;27.84
78667;BME280;67983;59.830;30.198;2023-04-15T01:56:11;102765.28;;;4.97;28.03
78667;BME280;67983;59.830;30.198;2023-04-15T01:58:39;102760.88;;;4.97;27.93
78667;BME280;67983;59.830;30.198;2023-04-15T02:01:09;102757.41;;;4.95;27.96
78667;BME280;67983;59.830;30.198;2023-04-15T02:03:39;102767.06;;;4.95;27.89
78667;BME280;67983;59.830;30.198;2023-04-15T02:06:08;102769.69;;;4.93;27.97
78667;BME280;67983;59.830;30.198;2023-04-15T02:08:36;102771.47;;;4.93;27.94
78667;BME280;67983;59.830;30.198;2023-04-15T02:11:07;102781.03;;;4.98;27.85
78667;BME280;67983;59.830;30.198;2023-04-15T02:13:35;102776.63;;;5.02;28.02
78667;BME280;67983;59.830;30.198;2023-04-15T02:16:15;102779.19;;;5.05;28.24
78667;BME280;67983;59.830;30.198;2023-04-15T02:18:45;102775.72;;;5.03;28.11
78667;BME280;67983;59.830;30.198;2023-04-15T02:21:14;102778.38;;;5.01;27.97
78667;BME280;67983;59.830;30.198;2023-04-15T02:23:42;102781.00;;;5.01;28.06
78667;BME280;67983;59.830;30.198;2023-04-15T02:26:16;102781.88;;;5.02;28.25
78667;BME280;67983;59.830;30.198;2023-04-15T02:28:44;102775.81;;;4.95;28.13
78667;BME280;67983;59.830;30.198;2023-04-15T02:31:15;102779.31;;;4.96;28.05
78667;BME280;67983;59.830;30.198;2023-04-15T02:33:44;102785.47;;;4.95;28.09
78667;BME280;67983;59.830;30.198;2023-04-15T02:36:12;102783.66;;;4.98;28.23
78667;BME280;67983;59.830;30.198;2023-04-15T02:38:40;102779.28;;;4.99;27.89
78667;BME280;67983;59.830;30.198;2023-04-15T02:41:09;102782.81;;;4.98;28.31
78667;BME280;67983;59.830;30.198;2023-04-15T02:43:39;102791.50;;;5.03;27.91
78667;BME280;67983;59.830;30.198;2023-04-15T02:46:09;102790.63;;;5.05;27.96
78667;BME280;67983;59.830;30.198;2023-04-15T02:48:41;102787.94;;;5.10;28.19
78667;BME280;67983;59.830;30.198;2023-04-15T02:51:13;102788.81;;;5.12;28.41
78667;BME280;67983;59.830;30.198;2023-04-15T02:53:45;102787.88;;;5.16;28.09
78667;BME280;67983;59.830;30.198;2023-04-15T02:56:13;102792.25;;;5.16;28.13
78667;BME280;67983;59.830;30.198;2023-04-15T02:58:45;102794.84;;;5.20;27.95
78667;BME280;67983;59.830;30.198;2023-04-15T03:01:20;102800.13;;;5.22;28.10
78667;BME280;67983;59.830;30.198;2023-04-15T03:03:49;102798.34;;;5.24;28.03
78667;BME280;67983;59.830;30.198;2023-04-15T03:06:17;102795.63;;;5.30;28.02
78667;BME280;67983;59.830;30.198;2023-04-15T03:08:46;102791.22;;;5.32;28.13
78667;BME280;67983;59.830;30.198;2023-04-15T03:11:14;102790.38;;;5.28;27.88
78667;BME280;67983;59.830;30.198;2023-04-15T03:13:43;102796.50;;;5.29;28.02
78667;BME280;67983;59.830;30.198;2023-04-15T03:16:22;102799.09;;;5.32;27.59
78667;BME280;67983;59.830;30.198;2023-04-15T03:19:16;102805.25;;;5.31;27.75
78667;BME280;67983;59.830;30.198;2023-04-15T03:21:45;102802.59;;;5.32;27.94
78667;BME280;67983;59.830;30.198;2023-04-15T03:24:39;102801.72;;;5.36;27.77
78667;BME280;67983;59.830;30.198;2023-04-15T03:27:09;102802.53;;;5.42;28.04
78667;BME280;67983;59.830;30.198;2023-04-15T03:29:37;102803.28;;;5.51;28.08
78667;BME280;67983;59.830;30.198;2023-04-15T03:32:09;102808.44;;;5.60;28.05
78667;BME280;67983;59.830;30.198;2023-04-15T03:34:41;102803.06;;;5.69;28.49
78667;BME280;67983;59.830;30.198;2023-04-15T03:37:09;102803.88;;;5.75;27.96
78667;BME280;67983;59.830;30.198;2023-04-15T03:39:37;102802.97;;;5.77;27.79
78667;BME280;67983;59.830;30.198;2023-04-15T03:42:06;102808.22;;;5.79;27.70
78667;BME280;67983;59.830;30.198;2023-04-15T03:44:36;102802.03;;;5.80;28.29
78667;BME280;67983;59.830;30.198;2023-04-15T03:47:05;102809.91;;;5.84;27.84
78667;BME280;67983;59.830;30.198;2023-04-15T03:49:33;102805.44;;;5.89;28.10
78667;BME280;67983;59.830;30.198;2023-04-15T03:52:05;102815.03;;;5.96;27.99
78667;BME280;67983;59.830;30.198;2023-04-15T03:54:33;102813.22;;;6.03;27.86
78667;BME280;67983;59.830;30.198;2023-04-15T03:57:07;102821.88;;;6.11;27.66
78667;BME280;67983;59.830;30.198;2023-04-15T03:59:35;102816.50;;;6.19;27.99
78667;BME280;67983;59.830;30.198;2023-04-15T04:02:05;102813.75;;;6.25;27.17
78667;BME280;67983;59.830;30.198;2023-04-15T04:04:33;102811.06;;;6.31;27.68
78667;BME280;67983;59.830;30.198;2023-04-15T04:07:02;102815.44;;;6.32;27.59
78667;BME280;67983;59.830;30.198;2023-04-15T04:09:31;102811.78;;;6.39;27.41
78667;BME280;67983;59.830;30.198;2023-04-15T04:12:01;102815.25;;;6.44;27.06
78667;BME280;67983;59.830;30.198;2023-04-15T04:14:30;102814.31;;;6.48;26.70
78667;BME280;67983;59.830;30.198;2023-04-15T04:16:58;102819.47;;;6.54;26.70
78667;BME280;67983;59.830;30.198;2023-04-15T04:22:45;102820.94;;;6.72;26.57
78667;BME280;67983;59.830;30.198;2023-04-15T04:25:14;102823.44;;;6.81;26.82
78667;BME280;67983;59.830;30.198;2023-04-15T04:27:43;102817.16;;;6.90;26.83
78667;BME280;67983;59.830;30.198;2023-04-15T04:30:12;102824.03;;;6.99;26.41
78667;BME280;67983;59.830;30.198;2023-04-15T04:32:40;102817.75;;;7.06;26.38
78667;BME280;67983;59.830;30.198;2023-04-15T04:35:08;102820.38;;;7.07;26.21
78667;BME280;67983;59.830;30.198;2023-04-15T04:37:37;102815.97;;;7.06;26.56
78667;BME280;67983;59.830;30.198;2023-04-15T04:40:09;102825.69;;;7.06;26.50
78667;BME280;67983;59.830;30.198;2023-04-15T04:42:39;102822.91;;;7.12;26.21
78667;BME280;67983;59.830;30.198;2023-04-15T04:45:08;102812.19;;;7.21;26.26
78667;BME280;67983;59.830;30.198;2023-04-15T04:47:37;102820.78;;;7.31;25.87
78667;BME280;67983;59.830;30.198;2023-04-15T04:50:07;102826.84;;;7.37;25.97
78667;BME280;67983;59.830;30.198;2023-04-15T04:52:36;102830.31;;;7.41;26.15
78667;BME280;67983;59.830;30.198;2023-04-15T04:55:05;102831.13;;;7.43;26.05
78667;BME280;67983;59.830;30.198;2023-04-15T04:57:34;102820.56;;;7.43;25.57
78667;BME280;67983;59.830;30.198;2023-04-15T05:00:06;102827.47;;;7.50;25.64
78667;BME280;67983;59.830;30.198;2023-04-15T05:02:36;102817.75;;;7.52;25.60
78667;BME280;67983;59.830;30.198;2023-04-15T05:05:05;102824.72;;;7.56;25.37
78667;BME280;67983;59.830;30.198;2023-04-15T05:07:33;102832.44;;;7.67;25.66
78667;BME280;67983;59.830;30.198;2023-04-15T05:10:03;102836.66;;;7.75;25.43
78667;BME280;67983;59.830;30.198;2023-04-15T05:12:34;102841.91;;;7.77;25.06
78667;BME280;67983;59.830;30.198;2023-04-15T05:15:05;102833.03;;;7.81;25.13
78667;BME280;67983;59.830;30.198;2023-04-15T05:17:34;102839.09;;;7.86;24.96
78667;BME280;67983;59.830;30.198;2023-04-15T05:20:02;102839.78;;;7.94;25.15
78667;BME280;67983;59.830;30.198;2023-04-15T05:22:31;102841.38;;;8.03;24.66
78667;BME280;67983;59.830;30.198;2023-04-15T05:25:04;102841.22;;;8.09;24.84
78667;BME280;67983;59.830;30.198;2023-04-15T05:27:32;102839.41;;;8.11;24.74
78667;BME280;67983;59.830;30.198;2023-04-15T05:30:00;102841.19;;;8.10;24.53
78667;BME280;67983;59.830;30.198;2023-04-15T05:32:30;102834.03;;;8.16;24.75
78667;BME280;67983;59.830;30.198;2023-04-15T05:34:58;102847.16;;;8.20;24.26
78667;BME280;67983;59.830;30.198;2023-04-15T05:37:28;102844.41;;;8.25;24.59
78667;BME280;67983;59.830;30.198;2023-04-15T05:39:57;102844.25;;;8.32;24.46
78667;BME280;67983;59.830;30.198;2023-04-15T05:42:25;102837.94;;;8.39;24.11
78667;BME280;67983;59.830;30.198;2023-04-15T05:44:53;102843.19;;;8.41;23.76
78667;BME280;67983;59.830;30.198;2023-04-15T05:47:22;102843.88;;;8.49;24.06
78667;BME280;67983;59.830;30.198;2023-04-15T05:49:52;102841.97;;;8.56;24.16
78667;BME280;67983;59.830;30.198;2023-04-15T05:52:26;102847.84;;;8.68;24.12
78667;BME280;67983;59.830;30.198;2023-04-15T05:54:54;102849.56;;;8.69;24.04
78667;BME280;67983;59.830;30.198;2023-04-15T05:57:22;102847.59;;;8.79;23.67
78667;BME280;67983;59.830;30.198;2023-04-15T05:59:51;102850.81;;;8.92;23.95
78667;BME280;67983;59.830;30.198;2023-04-15T06:02:21;102851.38;;;9.03;23.60
78667;BME280;67983;59.830;30.198;2023-04-15T06:04:51;102843.34;;;9.08;22.85
78667;BME280;67983;59.830;30.198;2023-04-15T06:07:19;102848.47;;;9.14;23.39
78667;BME280;67983;59.830;30.198;2023-04-15T06:09:47;102848.19;;;9.24;23.31
78667;BME280;67983;59.830;30.198;2023-04-15T06:12:15;102849.59;;;9.38;23.10
78667;BME280;67983;59.830;30.198;2023-04-15T06:14:43;102850.25;;;9.46;23.34
78667;BME280;67983;59.830;30.198;2023-04-15T06:17:14;102857.22;;;9.50;22.67
78667;BME280;67983;59.830;30.198;2023-04-15T06:19:44;102852.63;;;9.56;23.15
78667;BME280;67983;59.830;30.198;2023-04-15T06:22:18;102844.56;;;9.59;22.48
78667;BME280;67983;59.830;30.198;2023-04-15T06:24:56;102849.78;;;9.63;22.80
78667;BME280;67983;59.830;30.198;2023-04-15T06:27:26;102849.72;;;9.66;22.13
78667;BME280;67983;59.830;30.198;2023-04-15T06:29:54;102845.28;;;9.66;22.36
78667;BME280;67983;59.830;30.198;2023-04-15T06:32:22;102853.25;;;9.65;22.57
78667;BME280;67983;59.830;30.198;2023-04-15T06:34:50;102856.00;;;9.62;22.41
78667;BME280;67983;59.830;30.198;2023-04-15T06:37:20;102853.53;;;9.55;22.29
78667;BME280;67983;59.830;30.198;2023-04-15T06:39:49;102845.59;;;9.55;22.60
78667;BME280;67983;59.830;30.198;2023-04-15T06:42:20;102850.59;;;9.66;22.38
78667;BME280;67983;59.830;30.198;2023-04-15T06:44:49;102852.81;;;9.80;21.92
78667;BME280;67983;59.830;30.198;2023-04-15T06:47:17;102857.94;;;9.87;22.41
78667;BME280;67983;59.830;30.198;2023-04-15T06:49:45;102848.13;;;9.89;21.92
78667;BME280;67983;59.830;30.198;2023-04-15T06:52:14;102857.63;;;9.98;22.27
78667;BME280;67983;59.830;30.198;2023-04-15T06:54:47;102853.75;;;10.08;21.76
78667;BME280;67983;59.830;30.198;2023-04-15T06:57:18;102856.06;;;10.21;21.48
78667;BME280;67983;59.830;30.198;2023-04-15T06:59:47;102857.47;;;10.34;21.36
78667;BME280;67983;59.830;30.198;2023-04-15T07:02:16;102857.13;;;10.44;21.24
78667;BME280;67983;59.830;30.198;2023-04-15T07:04:44;102856.72;;;10.57;21.43
78667;BME280;67983;59.830;30.198;2023-04-15T07:07:14;102861.09;;;10.59;21.04
78667;BME280;67983;59.830;30.198;2023-04-15T07:09:43;102861.81;;;10.64;21.16
78667;BME280;67983;59.830;30.198;2023-04-15T07:12:13;102852.69;;;10.73;21.41
78667;BME280;67983;59.830;30.198;2023-04-15T07:14:42;102863.75;;;10.86;20.93
78667;BME280;67983;59.830;30.198;2023-04-15T07:17:13;102860.09;;;10.90;20.75
78667;BME280;67983;59.830;30.198;2023-04-15T07:19:44;102862.38;;;11.00;20.74
78667;BME280;67983;59.830;30.198;2023-04-15T07:22:14;102866.47;;;11.11;20.47
78667;BME280;67983;59.830;30.198;2023-04-15T07:24:42;102860.91;;;11.18;20.25
78667;BME280;67983;59.830;30.198;2023-04-15T07:27:19;102872.69;;;11.36;20.12
78667;BME280;67983;59.830;30.198;2023-04-15T07:29:49;102867.84;;;11.47;20.27
78667;BME280;67983;59.830;30.198;2023-04-15T07:32:19;102872.91;;;11.55;20.37
78667;BME280;67983;59.830;30.198;2023-04-15T07:34:48;102873.66;;;11.58;20.12
78667;BME280;67983;59.830;30.198;2023-04-15T07:37:17;102876.25;;;11.60;19.87
78667;BME280;67983;59.830;30.198;2023-04-15T07:39:45;102875.31;;;11.61;19.84
78667;BME280;67983;59.830;30.198;2023-04-15T07:42:16;102874.47;;;11.60;19.91
78667;BME280;67983;59.830;30.198;2023-04-15T07:44:44;102877.91;;;11.64;20.11
78667;BME280;67983;59.830;30.198;2023-04-15T07:47:12;102876.91;;;11.66;19.72
78667;BME280;67983;59.830;30.198;2023-04-15T07:49:41;102873.03;;;11.75;19.87
78667;BME280;67983;59.830;30.198;2023-04-15T07:52:11;102871.25;;;11.76;19.43
78667;BME280;67983;59.830;30.198;2023-04-15T07:54:40;102868.59;;;11.76;19.65
78667;BME280;67983;59.830;30.198;2023-04-15T07:57:09;102868.22;;;11.86;19.71
78667;BME280;67983;59.830;30.198;2023-04-15T07:59:40;102872.06;;;12.03;19.66
78667;BME280;67983;59.830;30.198;2023-04-15T08:02:08;102870.78;;;12.13;19.68
78667;BME280;67983;59.830;30.198;2023-04-15T08:04:39;102866.84;;;12.23;19.42
78667;BME280;67983;59.830;30.198;2023-04-15T08:07:07;102870.41;;;12.22;19.19
78667;BME280;67983;59.830;30.198;2023-04-15T08:09:35;102870.53;;;12.19;19.15
78667;BME280;67983;59.830;30.198;2023-04-15T08:12:06;102875.75;;;12.22;19.13
78667;BME280;67983;59.830;30.198;2023-04-15T08:14:40;102865.50;;;12.35;19.31
78667;BME280;67983;59.830;30.198;2023-04-15T08:17:10;102867.97;;;12.39;18.86
78667;BME280;67983;59.830;30.198;2023-04-15T08:19:39;102870.53;;;12.42;18.94
78667;BME280;67983;59.830;30.198;2023-04-15T08:22:10;102871.09;;;12.50;19.14
78667;BME280;67983;59.830;30.198;2023-04-15T08:24:38;102865.47;;;12.58;18.78
78667;BME280;67983;59.830;30.198;2023-04-15T08:27:08;102856.91;;;12.72;18.74
78667;BME280;67983;59.830;30.198;2023-04-15T08:29:37;102862.78;;;12.80;18.83
78667;BME280;67983;59.830;30.198;2023-04-15T08:32:07;102857.09;;;12.89;18.84
78667;BME280;67983;59.830;30.198;2023-04-15T08:34:36;102856.03;;;12.93;18.55
78667;BME280;67983;59.830;30.198;2023-04-15T08:37:06;102842.91;;;12.89;18.52
78667;BME280;67983;59.830;30.198;2023-04-15T08:39:37;102850.31;;;13.02;18.44
78667;BME280;67983;59.830;30.198;2023-04-15T08:42:10;102844.38;;;13.16;18.33
78667;BME280;67983;59.830;30.198;2023-04-15T08:44:40;102847.69;;;13.23;18.29
78667;BME280;67983;59.830;30.198;2023-04-15T08:47:19;102849.16;;;13.30;18.37
78667;BME280;67983;59.830;30.198;2023-04-15T08:49:50;102849.56;;;13.41;18.34
78667;BME280;67983;59.830;30.198;2023-04-15T08:52:21;102834.81;;;13.53;17.98
78667;BME280;67983;59.830;30.198;2023-04-15T08:54:55;102845.19;;;13.59;17.84
78667;BME280;67983;59.830;30.198;2023-04-15T08:57:27;102846.75;;;13.64;17.87
78667;BME280;67983;59.830;30.198;2023-04-15T08:59:58;102839.53;;;13.66;17.71
78667;BME280;67983;59.830;30.198;2023-04-15T09:02:59;102846.31;;;13.73;17.80
78667;BME280;67983;59.830;30.198;2023-04-15T09:05:30;102842.06;;;13.88;17.69
78667;BME280;67983;59.830;30.198;2023-04-15T09:07:59;102843.88;;;14.06;17.60
78667;BME280;67983;59.830;30.198;2023-04-15T09:10:29;102838.13;;;14.16;17.80
78667;BME280;67983;59.830;30.198;2023-04-15T09:13:00;102840.94;;;14.31;17.42
78667;BME280;67983;59.830;30.198;2023-04-15T09:15:29;102846.84;;;14.38;17.29
78667;BME280;67983;59.830;30.198;2023-04-15T09:18:03;102844.16;;;14.38;17.25
78667;BME280;67983;59.830;30.198;2023-04-15T09:20:39;102840.50;;;14.41;17.32
78667;BME280;67983;59.830;30.198;2023-04-15T09:23:14;102840.94;;;14.50;16.96
78667;BME280;67983;59.830;30.198;2023-04-15T09:25:47;102835.59;;;14.50;16.82
78667;BME280;67983;59.830;30.198;2023-04-15T09:28:23;102840.38;;;14.44;16.97
78667;BME280;67983;59.830;30.198;2023-04-15T09:30:57;102840.50;;;14.41;16.96
78667;BME280;67983;59.830;30.198;2023-04-15T09:33:29;102845.03;;;14.39;16.69
78667;BME280;67983;59.830;30.198;2023-04-15T09:39:03;102840.31;;;14.26;16.66
78667;BME280;67983;59.830;30.198;2023-04-15T09:41:37;102835.22;;;14.39;16.71
78667;BME280;67983;59.830;30.198;2023-04-15T09:44:21;102835.84;;;14.46;16.63
78667;BME280;67983;59.830;30.198;2023-04-15T09:46:51;102838.19;;;14.52;16.38
78667;BME280;67983;59.830;30.198;2023-04-15T09:49:21;102834.72;;;14.50;16.51
78667;BME280;67983;59.830;30.198;2023-04-15T09:52:14;102832.69;;;14.55;16.52
78667;BME280;67983;59.830;30.198;2023-04-15T09:54:47;102830.84;;;14.57;16.45
78667;BME280;67983;59.830;30.198;2023-04-15T09:57:37;102841.66;;;14.54;16.33
78667;BME280;67983;59.830;30.198;2023-04-15T10:00:13;102849.97;;;14.48;16.20
78667;BME280;67983;59.830;30.198;2023-04-15T10:02:47;102836.03;;;14.41;16.12
78667;BME280;67983;59.830;30.198;2023-04-15T10:05:20;102843.84;;;14.46;15.99
78667;BME280;67983;59.830;30.198;2023-04-15T10:07:56;102846.06;;;14.55;16.10
78667;BME280;67983;59.830;30.198;2023-04-15T10:10:28;102844.13;;;14.58;16.26
78667;BME280;67983;59.830;30.198;2023-04-15T10:13:25;102856.16;;;14.67;16.30
78667;BME280;67983;59.830;30.198;2023-04-15T10:16:05;102853.50;;;14.84;15.98
78667;BME280;67983;59.830;30.198;2023-04-15T10:19:20;102832.28;;;14.81;16.07
78667;BME280;67983;59.830;30.198;2023-04-15T10:22:21;102831.50;;;14.79;15.95
78667;BME280;67983;59.830;30.198;2023-04-15T10:25:18;102837.00;;;14.76;16.22
78667;BME280;67983;59.830;30.198;2023-04-15T10:28:00;102823.56;;;14.95;16.10
78667;BME280;67983;59.830;30.198;2023-04-15T10:30:30;102833.16;;;14.99;16.27
78667;BME280;67983;59.830;30.198;2023-04-15T10:33:10;102824.59;;;14.92;16.41
78667;BME280;67983;59.830;30.198;2023-04-15T10:35:39;102835.13;;;14.95;16.19
78667;BME280;67983;59.830;30.198;2023-04-15T10:38:33;102831.28;;;15.01;16.09
78667;BME280;67983;59.830;30.198;2023-04-15T10:41:12;102820.50;;;15.03;15.89
78667;BME280;67983;59.830;30.198;2023-04-15T10:43:48;102829.22;;;15.06;15.99
78667;BME280;67983;59.830;30.198;2023-04-15T10:46:20;102829.16;;;15.08;15.86
78667;BME280;67983;59.830;30.198;2023-04-15T10:48:54;102828.13;;;15.10;15.75
78667;BME280;67983;59.830;30.198;2023-04-15T10:51:28;102832.06;;;15.20;15.68
78667;BME280;67983;59.830;30.198;2023-04-15T10:54:11;102821.53;;;15.17;15.79
78667;BME280;67983;59.830;30.198;2023-04-15T10:56:41;102823.72;;;15.09;15.78
78667;BME280;67983;59.830;30.198;2023-04-15T10:59:10;102817.28;;;14.96;15.67
78667;BME280;67983;59.830;30.198;2023-04-15T11:02:06;102824.84;;;14.88;15.91
78667;BME280;67983;59.830;30.198;2023-04-15T11:05:02;102829.69;;;14.80;15.88
78667;BME280;67983;59.830;30.198;2023-04-15T11:07:36;102824.88;;;14.69;16.01
78667;BME280;67983;59.830;30.198;2023-04-15T11:13:26;102823.47;;;14.43;16.18
78667;BME280;67983;59.830;30.198;2023-04-15T11:16:01;102808.53;;;14.20;16.37
78667;BME280;67983;59.830;30.198;2023-04-15T11:18:31;102811.00;;;14.06;16.56
78667;BME280;67983;59.830;30.198;2023-04-15T11:21:06;102805.09;;;13.99;16.63
78667;BME280;67983;59.830;30.198;2023-04-15T11:23:37;102806.09;;;13.97;16.61
78667;BME280;67983;59.830;30.198;2023-04-15T11:26:09;102800.47;;;13.84;16.66
78667;BME280;67983;59.830;30.198;2023-04-15T11:28:40;102802.28;;;13.84;16.98
78667;BME280;67983;59.830;30.198;2023-04-15T11:31:11;102795.22;;;13.83;17.01
78667;BME280;67983;59.830;30.198;2023-04-15T11:33:46;102797.28;;;13.76;17.04
78667;BME280;67983;59.830;30.198;2023-04-15T11:36:26;102785.53;;;13.80;17.16
78667;BME280;67983;59.830;30.198;2023-04-15T11:38:59;102790.25;;;13.94;16.85
78667;BME280;67983;59.830;30.198;2023-04-15T11:41:31;102788.69;;;14.07;17.11
78667;BME280;67983;59.830;30.198;2023-04-15T11:44:00;102779.16;;;14.20;17.02
78667;BME280;67983;59.830;30.198;2023-04-15T11:46:40;102777.78;;;14.30;16.74
78667;BME280;67983;59.830;30.198;2023-04-15T11:49:25;102777.00;;;14.28;16.75
78667;BME280;67983;59.830;30.198;2023-04-15T11:51:52;102779.75;;;14.27;16.75
78667;BME280;67983;59.830;30.198;2023-04-15T11:54:24;102774.66;;;14.40;16.88
78667;BME280;67983;59.830;30.198;2023-04-15T11:56:52;102769.31;;;14.58;16.75
78667;BME280;67983;59.830;30.198;2023-04-15T11:59:22;102771.13;;;14.75;16.79
78667;BME280;67983;59.830;30.198;2023-04-15T12:01:49;102779.84;;;14.96;16.69
78667;BME280;67983;59.830;30.198;2023-04-15T12:04:18;102770.16;;;15.11;16.43
78667;BME280;67983;59.830;30.198;2023-04-15T12:06:50;102769.53;;;15.23;16.49
78667;BME280;67983;59.830;30.198;2023-04-15T12:09:20;102777.22;;;15.29;16.56
78667;BME280;67983;59.830;30.198;2023-04-15T12:11:51;102772.78;;;15.45;16.49
78667;BME280;67983;59.830;30.198;2023-04-15T12:14:24;102781.06;;;15.74;16.68
78667;BME280;67983;59.830;30.198;2023-04-15T12:16:52;102757.75;;;15.76;15.91
78667;BME280;67983;59.830;30.198;2023-04-15T12:19:25;102768.91;;;15.84;15.81
78667;BME280;67983;59.830;30.198;2023-04-15T12:21:56;102766.59;;;15.94;15.63
78667;BME280;67983;59.830;30.198;2023-04-15T12:24:54;102772.00;;;15.92;15.56
78667;BME280;67983;59.830;30.198;2023-04-15T12:27:25;102762.34;;;15.90;15.08
78667;BME280;67983;59.830;30.198;2023-04-15T12:30:03;102762.88;;;15.96;15.31
78667;BME280;67983;59.830;30.198;2023-04-15T12:32:34;102765.56;;;16.12;15.09
78667;BME280;67983;59.830;30.198;2023-04-15T12:35:03;102764.06;;;16.22;15.16
78667;BME280;67983;59.830;30.198;2023-04-15T12:37:31;102758.09;;;16.33;15.04
78667;BME280;67983;59.830;30.198;2023-04-15T12:39:59;102757.66;;;16.40;14.88
78667;BME280;67983;59.830;30.198;2023-04-15T12:42:27;102754.25;;;16.53;14.83
78667;BME280;67983;59.830;30.198;2023-04-15T12:44:55;102758.31;;;16.60;14.44
78667;BME280;67983;59.830;30.198;2023-04-15T12:48:03;102765.16;;;16.50;14.57
78667;BME280;67983;59.830;30.198;2023-04-15T12:50:31;102760.56;;;16.52;14.35
78667;BME280;67983;59.830;30.198;2023-04-15T12:52:59;102757.13;;;16.50;14.23
78667;BME280;67983;59.830;30.198;2023-04-15T12:55:26;102764.56;;;16.44;14.27
78667;BME280;67983;59.830;30.198;2023-04-15T12:57:56;102760.50;;;16.37;14.38
78667;BME280;67983;59.830;30.198;2023-04-15T13:00:23;102763.97;;;16.39;14.25
78667;BME280;67983;59.830;30.198;2023-04-15T13:02:53;102761.97;;;16.43;14.32
78667;BME280;67983;59.830;30.198;2023-04-15T13:06:05;102762.06;;;16.41;14.45
78667;BME280;67983;59.830;30.198;2023-04-15T13:08:33;102747.66;;;16.28;14.37
78667;BME280;67983;59.830;30.198;2023-04-15T13:11:01;102758.13;;;16.17;14.55
78667;BME280;67983;59.830;30.198;2023-04-15T13:13:29;102749.72;;;16.07;14.82
78667;BME280;67983;59.830;30.198;2023-04-15T13:15:57;102751.63;;;16.05;14.88
78667;BME280;67983;59.830;30.198;2023-04-15T13:18:25;102742.13;;;16.16;14.89
78667;BME280;67983;59.830;30.198;2023-04-15T13:20:53;102752.06;;;16.29;14.73
78667;BME280;67983;59.830;30.198;2023-04-15T13:23:26;102751.78;;;16.34;14.79